Time;durP1;ratioP1;P1;durP2;ratioP2;P2;SDS_P1;SDS_P2;PMS_P1;PMS_P2;Temp;Humidity;BMP_temperature;BMP_pressure;BME280_temperature;BME280_humidity;BME280_pressure;Samples;Min_cycle;Max_cycle;Signal;HPM_P1;HPM_P2
2023/08/12 00:09:32;;;;;;;19.90;17.15;;;;;;;22.23;68.62;100744.44;21018542;28;20265;-77
2023/08/12 00:19:35;;;;;;;22.33;15.82;;;;;;;21.84;68.71;100738.41;20997050;28;20455;-78
2023/08/12 00:29:40;;;;;;;21.48;16.65;;;;;;;21.71;69.33;100723.53;21013537;28;20503;-78
2023/08/12 00:39:43;;;;;;;27.17;19.17;;;;;;;21.91;69.62;100718.41;21016208;28;20267;-85
2023/08/12 00:49:46;;;;;;;25.83;20.10;;;;;;;22.07;68.79;100705.44;21020667;28;20218;-86
2023/08/12 00:59:49;;;;;;;21.95;16.60;;;;;;;21.35;72.01;100708.06;21023480;28;20198;-87
2023/08/12 01:09:51;;;;;;;19.20;15.18;;;;;;;21.86;70.30;100693.81;20997560;28;20226;-79
2023/08/12 01:20:31;;;;;;;18.38;14.13;;;;;;;21.64;71.38;100692.78;21053911;27;20220;-87
2023/08/12 01:30:41;;;;;;;19.73;17.10;;;;;;;21.28;72.80;100703.09;21031927;28;20221;-80
2023/08/12 01:40:45;;;;;;;24.52;19.45;;;;;;;21.12;74.54;100705.34;21017209;28;20233;-78
2023/08/12 01:50:48;;;;;;;25.80;20.50;;;;;;;20.98;74.85;100694.56;20955696;28;20254;-86
2023/08/12 02:00:50;;;;;;;30.25;21.80;;;;;;;20.67;75.59;100678.66;20926623;28;20647;-86
2023/08/12 02:10:54;;;;;;;25.98;16.67;;;;;;;20.84;73.90;100667.84;20970755;28;20522;-79
2023/08/12 02:20:57;;;;;;;19.55;14.90;;;;;;;20.87;74.26;100665.03;20949710;28;20195;-83
2023/08/12 02:30:59;;;;;;;16.00;13.30;;;;;;;20.89;73.90;100667.50;20975410;28;20272;-84
2023/08/12 02:41:03;;;;;;;18.42;14.35;;;;;;;20.37;75.58;100652.94;20970340;28;20199;-78
2023/08/12 02:51:06;;;;;;;18.65;14.40;;;;;;;21.22;71.52;100640.88;20989767;28;20223;-80
2023/08/12 03:01:08;;;;;;;17.83;15.80;;;;;;;21.59;70.13;100627.28;20985218;28;20661;-79
2023/08/12 03:11:11;;;;;;;18.80;15.63;;;;;;;21.39;71.79;100626.72;20949886;28;20229;-77
2023/08/12 03:21:14;;;;;;;17.95;15.23;;;;;;;20.46;74.45;100626.91;20953384;28;20199;-78
2023/08/12 03:31:17;;;;;;;17.15;14.52;;;;;;;20.80;72.98;100604.03;20941772;28;20268;-82
2023/08/12 03:41:20;;;;;;;19.80;13.77;;;;;;;20.84;74.24;100602.03;20936592;28;20581;-80
2023/08/12 03:51:24;;;;;;;18.85;15.82;;;;;;;20.74;74.51;100592.97;20951139;28;20642;-89
2023/08/12 04:01:27;;;;;;;19.05;15.57;;;;;;;21.25;71.61;100569.34;20929980;28;20195;-78
2023/08/12 04:11:31;;;;;;;19.98;16.17;;;;;;;21.24;71.65;100559.13;20969494;28;20206;-77
2023/08/12 04:21:33;;;;;;;15.55;13.93;;;;;;;21.18;71.58;100554.97;20939919;28;20264;-78
2023/08/12 04:31:36;;;;;;;17.83;14.30;;;;;;;21.13;71.75;100543.06;20936838;28;21392;-84
2023/08/12 04:41:39;;;;;;;16.73;13.30;;;;;;;21.04;72.33;100529.88;20987791;28;20269;-77
2023/08/12 04:51:42;;;;;;;17.85;13.90;;;;;;;21.21;71.91;100516.97;21012277;28;20531;-77
2023/08/12 05:01:45;;;;;;;17.58;14.52;;;;;;;21.54;70.20;100515.16;20951335;28;20280;-80
2023/08/12 05:12:07;;;;;;;13.95;12.20;;;;;;;21.07;73.01;100511.09;20972356;28;20190;-83
2023/08/12 05:22:10;;;;;;;16.20;12.18;;;;;;;21.08;71.92;100504.16;20971931;28;20222;-77
2023/08/12 05:32:13;;;;;;;16.45;13.68;;;;;;;21.35;71.63;100499.09;20938842;28;20487;-78
2023/08/12 05:42:16;;;;;;;13.25;11.85;;;;;;;21.72;69.88;100490.28;20952439;28;20214;-78
2023/08/12 05:52:19;;;;;;;13.65;12.23;;;;;;;21.44;71.21;100496.69;20999682;28;20272;-78
2023/08/12 06:02:21;;;;;;;12.05;10.85;;;;;;;21.79;70.38;100482.59;20993170;28;20707;-79
2023/08/12 06:12:24;;;;;;;10.70;9.27;;;;;;;21.96;70.29;100485.91;20981576;28;20296;-78
2023/08/12 06:22:27;;;;;;;8.43;7.60;;;;;;;21.18;72.47;100485.44;21004944;28;20232;-78
2023/08/12 06:32:29;;;;;;;7.28;5.90;;;;;;;20.96;72.30;100485.28;21018615;28;20668;-84
2023/08/12 06:42:32;;;;;;;5.90;5.10;;;;;;;20.89;73.12;100482.38;21026085;28;20522;-78
2023/08/12 06:52:34;;;;;;;6.35;5.35;;;;;;;20.35;74.11;100481.03;21033989;28;20237;-78
2023/08/12 07:02:37;;;;;;;6.47;4.00;;;;;;;20.17;74.87;100477.13;21028077;28;20557;-79
2023/08/12 07:12:39;;;;;;;4.90;3.78;;;;;;;20.36;73.19;100467.56;20977426;28;20663;-83
2023/08/12 07:22:42;;;;;;;9.50;4.13;;;;;;;20.01;75.83;100427.97;21016722;28;20226;-79
2023/08/12 07:32:44;;;;;;;4.43;3.65;;;;;;;20.14;75.42;100434.22;20995731;28;20244;-88
2023/08/12 07:42:47;;;;;;;4.20;3.80;;;;;;;20.42;74.60;100460.25;20992193;28;20217;-82
2023/08/12 07:52:51;;;;;;;7.72;5.63;;;;;;;20.17;75.71;100433.44;21014117;28;20222;-86
2023/08/12 08:02:54;;;;;;;7.00;3.63;;;;;;;20.84;73.64;100439.81;21037649;28;20272;-89
2023/08/12 08:12:57;;;;;;;3.00;2.72;;;;;;;21.32;71.11;100425.44;21055643;28;20224;-76
2023/08/12 08:22:59;;;;;;;2.85;2.47;;;;;;;20.57;73.87;100424.88;21083863;28;20236;-86
2023/08/12 08:33:02;;;;;;;2.35;2.15;;;;;;;21.55;72.01;100419.44;21107267;28;20663;-88
2023/08/12 08:43:07;;;;;;;2.38;1.60;;;;;;;21.37;71.57;100419.34;21112812;28;20553;-83
2023/08/12 08:53:09;;;;;;;3.67;1.98;;;;;;;21.19;72.60;100429.88;21040514;28;20243;-84
2023/08/12 09:03:13;;;;;;;1.90;1.80;;;;;;;20.84;72.71;100436.13;21089487;28;20214;-87
2023/08/12 09:13:18;;;;;;;2.95;1.88;;;;;;;21.44;70.64;100437.38;21049508;28;20255;-82
2023/08/12 09:23:22;;;;;;;2.67;2.42;;;;;;;21.04;72.09;100446.13;21116564;28;20275;-84
2023/08/12 09:33:28;;;;;;;1.77;1.67;;;;;;;21.17;72.93;100444.56;21023833;28;20194;-84
2023/08/12 09:43:31;;;;;;;3.42;1.75;;;;;;;21.31;70.98;100430.34;21061456;28;20252;-83
2023/08/12 09:53:35;;;;;;;1.88;1.67;;;;;;;21.39;70.71;100414.88;21070183;28;20186;-79
2023/08/12 10:03:37;;;;;;;2.83;1.38;;;;;;;21.38;70.14;100421.00;21536630;22;20227;-77
2023/08/12 10:13:40;;;;;;;1.50;1.40;;;;;;;21.07;71.64;100440.41;20928177;28;20188;-83
2023/08/12 10:23:43;;;;;;;1.27;1.17;;;;;;;22.23;65.24;100438.50;20912630;28;20539;-78
2023/08/12 10:33:49;;;;;;;2.05;1.65;;;;;;;21.43;68.33;100434.94;20933765;28;20191;-81
2023/08/12 10:43:56;;;;;;;1.90;0.93;;;;;;;22.02;66.60;100427.81;20957290;28;20215;-86
2023/08/12 10:54:16;;;;;;;1.02;0.68;;;;;;;22.08;65.45;100420.47;20953943;28;20199;-84
2023/08/12 11:04:19;;;;;;;1.05;0.43;;;;;;;22.95;63.07;100407.84;20917597;28;20227;-87
2023/08/12 11:14:23;;;;;;;0.40;0.40;;;;;;;22.86;61.59;100400.44;20854062;28;20234;-87
2023/08/12 11:24:26;;;;;;;2.47;0.65;;;;;;;22.82;63.79;100393.91;20882009;28;20564;-82
2023/08/12 11:34:30;;;;;;;1.98;0.85;;;;;;;21.90;69.68;100407.31;20847964;28;20254;-80
2023/08/12 11:44:32;;;;;;;0.68;0.47;;;;;;;22.37;69.65;100409.03;20889293;28;20215;-91
2023/08/12 11:54:35;;;;;;;2.53;1.02;;;;;;;21.42;74.51;100405.50;20921972;28;20241;-90
2023/08/12 12:04:42;;;;;;;1.88;0.60;;;;;;;21.59;73.46;100408.81;20917524;28;20230;-86
2023/08/12 12:14:52;;;;;;;2.88;1.70;;;;;;;21.45;76.95;100410.38;20886281;28;20226;-85
2023/08/12 12:24:58;;;;;;;1.35;0.77;;;;;;;21.87;73.50;100397.50;20916831;28;20211;-86
2023/08/12 12:35:01;;;;;;;0.70;0.35;;;;;;;22.07;71.87;100389.38;20941714;28;20213;-80
2023/08/12 12:45:05;;;;;;;0.82;0.50;;;;;;;22.21;70.38;100391.44;20930562;28;20609;-83
2023/08/12 12:55:08;;;;;;;0.60;0.60;;;;;;;23.21;71.28;100384.44;20911574;28;20191;-78
2023/08/12 13:05:10;;;;;;;1.30;0.40;;;;;;;22.92;67.60;100377.09;20901589;28;20227;-79
2023/08/12 13:15:13;;;;;;;1.02;0.98;;;;;;;22.94;67.54;100409.88;20905024;28;20608;-86
2023/08/12 13:25:16;;;;;;;2.10;0.93;;;;;;;20.90;74.52;100435.38;20889885;28;20216;-83
2023/08/12 13:35:19;;;;;;;1.20;1.20;;;;;;;21.58;72.05;100412.91;20909971;28;20196;-84
2023/08/12 13:45:21;;;;;;;4.78;3.35;;;;;;;21.24;73.74;100443.81;20900319;28;20219;-81
2023/08/12 13:55:25;;;;;;;3.03;2.10;;;;;;;20.95;74.42;100457.06;20905683;28;20252;-90
2023/08/12 14:05:28;;;;;;;3.08;2.88;;;;;;;21.81;73.42;100458.47;20866848;28;20852;-85
2023/08/12 14:15:30;;;;;;;3.38;3.17;;;;;;;20.70;75.94;100466.25;20871503;28;20200;-83
2023/08/12 14:25:35;;;;;;;4.50;4.10;;;;;;;21.13;75.11;100463.75;20906776;28;20212;-93
2023/08/12 14:35:38;;;;;;;5.97;5.47;;;;;;;21.77;73.54;100469.88;20895016;28;20196;-81
2023/08/12 14:45:40;;;;;;;7.65;6.95;;;;;;;21.83;74.62;100471.13;20882307;28;20512;-93
2023/08/12 14:55:43;;;;;;;8.00;6.30;;;;;;;21.78;73.41;100462.91;20888328;28;20258;-91
2023/08/12 15:05:48;;;;;;;6.93;6.20;;;;;;;22.57;72.15;100459.09;20915573;28;20222;-80
2023/08/12 15:15:51;;;;;;;5.78;5.32;;;;;;;22.89;68.95;100455.38;20905286;28;20192;-90
2023/08/12 15:25:54;;;;;;;5.30;4.90;;;;;;;22.61;69.60;100462.75;20886080;28;20227;-78
2023/08/12 15:35:56;;;;;;;6.00;5.50;;;;;;;22.53;67.63;100457.44;20878667;28;20488;-94
2023/08/12 15:46:00;;;;;;;5.10;4.70;;;;;;;20.99;69.85;100467.31;20886963;28;20277;-89
2023/08/12 15:56:03;;;;;;;6.80;6.25;;;;;;;22.18;66.45;100463.91;20878982;28;20230;-90
2023/08/12 16:06:07;;;;;;;12.00;10.85;;;;;;;22.26;68.00;100456.94;20913980;28;20555;-84
2023/08/12 16:16:10;;;;;;;6.68;6.07;;;;;;;23.03;61.40;100452.53;20879208;28;20253;-84
2023/08/12 16:26:12;;;;;;;11.15;9.05;;;;;;;22.28;63.70;100463.91;20908649;28;20246;-86
2023/08/12 16:36:15;;;;;;;2.92;2.38;;;;;;;21.72;56.98;100481.69;20904039;28;20670;-91
2023/08/12 16:46:17;;;;;;;3.83;3.33;;;;;;;22.32;57.74;100481.13;20888688;28;20286;-90
2023/08/12 16:56:20;;;;;;;2.70;1.63;;;;;;;22.42;56.69;100486.09;20905347;28;20393;-88
2023/08/12 17:06:23;;;;;;;2.67;2.03;;;;;;;22.42;55.21;100486.09;20851948;28;20770;-87
2023/08/12 17:16:26;;;;;;;2.80;2.03;;;;;;;22.52;54.69;100491.03;20878664;28;20245;-84
2023/08/12 17:26:31;;;;;;;4.15;1.52;;;;;;;22.40;54.18;100502.88;20889775;28;20215;-88
2023/08/12 17:36:33;;;;;;;4.25;1.52;;;;;;;22.60;51.82;100498.41;20884458;28;20196;-89
2023/08/12 17:46:36;;;;;;;7.97;3.00;;;;;;;22.45;50.09;100513.97;20887473;28;20224;-84
2023/08/12 17:56:39;;;;;;;3.55;1.55;;;;;;;21.48;51.96;100526.16;20892216;28;20246;-84
2023/08/12 18:06:43;;;;;;;6.00;2.30;;;;;;;21.62;50.82;100543.44;20873062;28;20273;-86
2023/08/12 18:16:45;;;;;;;6.15;2.42;;;;;;;21.67;50.84;100547.97;20842334;28;20253;-86
2023/08/12 18:26:48;;;;;;;5.00;2.08;;;;;;;21.37;52.88;100546.13;20826089;28;20247;-89
2023/08/12 18:36:51;;;;;;;3.55;1.55;;;;;;;21.32;54.25;100569.41;20841899;28;20532;-85
2023/08/12 19:00:06;;;;;;;4.53;2.65;;;;;;;21.11;55.24;100583.50;20680941;28;20866;-89
2023/08/12 19:10:15;;;;;;;5.15;2.35;;;;;;;21.12;55.05;100593.75;20766412;28;20289;-88
2023/08/12 19:20:57;;;;;;;;;;;;;;;;;;;;;
2023/08/12 19:31:25;;;;;;;4.90;2.47;;;;;;;20.70;58.26;100620.69;20839719;28;20293;-87
2023/08/12 19:41:28;;;;;;;6.50;2.80;;;;;;;20.18;60.16;100617.97;20832207;28;20256;-86
2023/08/12 19:51:32;;;;;;;8.80;3.25;;;;;;;20.13;61.60;100626.91;20847195;28;20377;-86
2023/08/12 20:01:35;;;;;;;5.90;3.20;;;;;;;19.60;63.67;100629.75;20854942;28;20196;-84
2023/08/12 20:11:37;;;;;;;4.63;2.90;;;;;;;19.88;62.34;100624.47;20866911;28;20227;-86
2023/08/12 20:21:40;;;;;;;4.63;2.92;;;;;;;19.73;62.51;100628.34;20873922;28;20223;-83
2023/08/12 20:31:43;;;;;;;6.72;3.30;;;;;;;20.04;61.08;100630.84;20861972;28;20284;-89
2023/08/12 20:41:54;;;;;;;6.82;3.70;;;;;;;19.98;60.83;100632.41;20870355;28;20200;-88
2023/08/12 20:52:04;;;;;;;4.88;3.10;;;;;;;19.48;60.75;100635.69;20864588;28;20239;-88
2023/08/12 21:02:07;;;;;;;3.72;2.38;;;;;;;19.49;58.63;100632.41;20854360;28;20594;-87
2023/08/12 21:12:10;;;;;;;8.95;2.13;;;;;;;19.47;58.00;100639.75;20807551;28;20289;-84
2023/08/12 21:22:14;;;;;;;3.45;2.20;;;;;;;19.68;57.83;100645.78;20828271;28;20196;-85
2023/08/12 21:32:17;;;;;;;3.72;1.85;;;;;;;19.39;57.21;100641.63;20859944;28;20251;-85
2023/08/12 21:42:25;;;;;;;5.05;2.10;;;;;;;19.24;57.50;100643.38;20834512;28;20200;-83
2023/08/12 21:52:27;;;;;;;3.17;1.92;;;;;;;19.54;56.10;100643.53;20818666;28;20274;-87
2023/08/12 22:02:30;;;;;;;4.22;2.10;;;;;;;19.65;55.44;100640.84;20789098;28;20876;-88
2023/08/12 22:12:33;;;;;;;2.72;1.67;;;;;;;19.66;53.83;100628.22;20794618;28;20253;-82
2023/08/12 22:22:35;;;;;;;6.32;2.03;;;;;;;19.45;53.06;100622.16;20810253;28;20204;-83
2023/08/12 22:32:38;;;;;;;7.55;2.50;;;;;;;19.72;52.14;100615.25;20769742;28;20610;-89
2023/08/12 22:42:41;;;;;;;4.13;2.47;;;;;;;19.32;53.85;100622.38;20847479;28;20200;-87
2023/08/12 22:52:43;;;;;;;6.40;2.55;;;;;;;19.79;52.50;100638.19;20759405;28;20220;-88
2023/08/12 23:02:46;;;;;;;3.13;2.38;;;;;;;19.16;55.53;100633.06;20812072;28;20212;-89
2023/08/12 23:12:49;;;;;;;7.20;2.40;;;;;;;19.25;53.80;100619.34;20828135;28;20223;-89
2023/08/12 23:22:52;;;;;;;6.35;2.33;;;;;;;19.16;55.03;100633.06;20818133;28;20527;-88
2023/08/12 23:32:55;;;;;;;6.38;2.50;;;;;;;19.04;55.58;100641.81;20806768;28;20219;-85
2023/08/12 23:42:59;;;;;;;5.18;2.13;;;;;;;18.94;55.13;100636.72;20783391;28;20208;-86
2023/08/12 23:53:03;;;;;;;5.63;2.20;;;;;;;18.82;55.19;100634.06;20838212;28;20656;-86
